createdAt,value
2022-10-09T00:02:11.453Z,9.14
2022-10-09T00:04:53.873Z,9.12
2022-10-09T00:07:36.234Z,9.10
2022-10-09T00:10:05.784Z,9.07
2022-10-09T00:12:34.747Z,9.04
2022-10-09T00:15:04.223Z,9.00
2022-10-09T00:17:33.106Z,8.96
2022-10-09T00:20:02.226Z,8.92
2022-10-09T00:22:31.164Z,8.88
2022-10-09T00:25:00.318Z,8.84
2022-10-09T00:27:29.084Z,8.79
2022-10-09T00:30:11.939Z,8.76
2022-10-09T00:32:54.637Z,8.74
2022-10-09T00:35:25.115Z,8.71
2022-10-09T00:37:53.903Z,8.66
2022-10-09T00:40:22.827Z,8.61
2022-10-09T00:42:58.618Z,8.58
2022-10-09T00:45:53.526Z,8.52
2022-10-09T00:48:36.026Z,8.46
2022-10-09T00:51:05.489Z,8.43
2022-10-09T00:53:34.390Z,8.40
2022-10-09T00:56:17.303Z,8.38
2022-10-09T00:58:53.032Z,8.36
2022-10-09T01:01:35.579Z,8.35
2022-10-09T01:04:04.554Z,8.34
2022-10-09T01:07:38.574Z,8.30
2022-10-09T01:10:13.527Z,8.25
2022-10-09T01:13:23.560Z,8.21
2022-10-09T01:15:57.326Z,8.17
2022-10-09T01:18:44.949Z,8.15
2022-10-09T01:21:25.863Z,8.12
2022-10-09T01:24:03.927Z,8.09
2022-10-09T01:27:24.708Z,8.07
2022-10-09T01:30:12.668Z,8.05
2022-10-09T01:32:56.208Z,8.04
2022-10-09T01:35:26.602Z,8.04
2022-10-09T01:38:09.988Z,8.06
2022-10-09T01:40:39.606Z,8.08
2022-10-09T01:43:08.269Z,8.11
2022-10-09T01:45:43.721Z,8.13
2022-10-09T01:48:26.240Z,8.13
2022-10-09T01:51:03.077Z,8.12
2022-10-09T01:53:33.830Z,8.11
2022-10-09T01:56:22.647Z,8.12
2022-10-09T01:58:56.976Z,8.13
2022-10-09T02:01:42.583Z,8.14
2022-10-09T02:04:15.848Z,8.15
2022-10-09T02:06:48.141Z,8.16
2022-10-09T02:09:18.423Z,8.16
2022-10-09T02:11:53.304Z,8.17
2022-10-09T02:14:24.488Z,8.17
2022-10-09T02:17:04.028Z,8.18
2022-10-09T02:19:41.174Z,8.17
2022-10-09T02:22:29.693Z,8.15
2022-10-09T02:25:01.885Z,8.14
2022-10-09T02:27:46.151Z,8.13
2022-10-09T02:30:16.199Z,8.12
2022-10-09T02:32:45.305Z,8.12
2022-10-09T02:35:14.668Z,8.12
2022-10-09T02:37:56.973Z,8.12
2022-10-09T02:40:25.635Z,8.12
2022-10-09T02:42:54.754Z,8.11
2022-10-09T02:45:23.695Z,8.06
2022-10-09T02:47:52.828Z,8.04
2022-10-09T02:50:36.645Z,8.01
2022-10-09T02:53:19.087Z,8.00
2022-10-09T02:55:48.372Z,8.00
2022-10-09T02:58:32.673Z,7.97
2022-10-09T03:01:01.554Z,7.95
2022-10-09T03:03:44.196Z,7.94
2022-10-09T03:06:28.233Z,7.89
2022-10-09T03:09:10.961Z,7.88
2022-10-09T03:11:39.991Z,7.88
2022-10-09T03:14:09.649Z,7.87
2022-10-09T03:16:39.097Z,7.85
2022-10-09T03:19:08.072Z,7.87
2022-10-09T03:21:37.689Z,7.89
2022-10-09T03:24:20.808Z,7.90
2022-10-09T03:27:03.224Z,7.89
2022-10-09T03:29:32.133Z,7.89
2022-10-09T03:32:00.993Z,7.90
2022-10-09T03:34:30.207Z,7.88
2022-10-09T03:36:59.109Z,7.88
2022-10-09T03:39:27.850Z,7.87
2022-10-09T03:41:56.643Z,7.88
2022-10-09T03:44:25.410Z,7.88
2022-10-09T03:47:07.924Z,7.89
2022-10-09T03:49:36.764Z,7.89
2022-10-09T03:52:19.086Z,7.88
2022-10-09T03:54:48.140Z,7.90
2022-10-09T03:57:17.414Z,7.91
2022-10-09T03:59:46.383Z,7.93
2022-10-09T04:02:15.521Z,7.95
2022-10-09T04:04:44.461Z,7.93
2022-10-09T04:07:13.370Z,7.93
2022-10-09T04:09:56.565Z,7.90
2022-10-09T04:12:25.970Z,7.90
2022-10-09T04:14:54.715Z,7.90
2022-10-09T04:17:37.358Z,7.91
2022-10-09T04:20:07.075Z,7.92
2022-10-09T04:22:35.693Z,7.91
2022-10-09T04:25:18.191Z,7.89
2022-10-09T04:27:47.238Z,7.87
2022-10-09T04:30:16.252Z,7.86
2022-10-09T04:32:58.572Z,7.85
2022-10-09T04:35:45.678Z,7.83
2022-10-09T04:38:27.941Z,7.80
2022-10-09T04:40:59.499Z,7.78
2022-10-09T04:43:28.682Z,7.76
2022-10-09T04:46:14.474Z,7.74
2022-10-09T04:48:57.105Z,7.71
2022-10-09T04:51:26.117Z,7.69
2022-10-09T04:54:00.408Z,7.66
2022-10-09T04:56:29.793Z,7.65
2022-10-09T04:59:13.305Z,7.63
2022-10-09T05:01:42.595Z,7.63
2022-10-09T05:04:25.175Z,7.63
2022-10-09T05:07:07.809Z,7.65
2022-10-09T05:09:37.443Z,7.65
2022-10-09T05:12:07.746Z,7.65
2022-10-09T05:14:36.605Z,7.65
2022-10-09T05:17:14.529Z,7.67
2022-10-09T05:19:57.332Z,7.69
2022-10-09T05:22:26.442Z,7.70
2022-10-09T05:24:55.334Z,7.71
2022-10-09T05:27:24.396Z,7.73
2022-10-09T05:29:53.909Z,7.75
2022-10-09T05:32:23.365Z,7.75
2022-10-09T05:34:52.266Z,7.76
2022-10-09T05:37:21.368Z,7.75
2022-10-09T05:39:50.294Z,7.75
2022-10-09T05:42:32.635Z,7.75
2022-10-09T05:45:01.662Z,7.78
2022-10-09T05:47:31.463Z,7.80
2022-10-09T05:50:14.008Z,7.82
2022-10-09T05:52:57.252Z,7.81
2022-10-09T05:55:27.468Z,7.76
2022-10-09T05:58:10.032Z,7.74
2022-10-09T06:00:39.022Z,7.73
2022-10-09T06:03:07.957Z,7.72
2022-10-09T06:05:36.684Z,7.76
2022-10-09T06:08:05.573Z,7.75
2022-10-09T06:10:34.480Z,7.73
2022-10-09T06:13:03.440Z,7.72
2022-10-09T06:15:32.428Z,7.69
2022-10-09T06:18:01.066Z,7.71
2022-10-09T06:20:54.225Z,7.74
2022-10-09T06:23:23.242Z,7.77
2022-10-09T06:26:08.144Z,7.78
2022-10-09T06:28:37.979Z,7.78
2022-10-09T06:31:23.180Z,7.80
2022-10-09T06:33:53.410Z,7.83
2022-10-09T06:36:36.911Z,7.87
2022-10-09T06:39:19.721Z,7.90
2022-10-09T06:41:48.833Z,7.94
2022-10-09T06:44:37.168Z,8.00
2022-10-09T06:47:06.637Z,8.02
2022-10-09T06:49:36.182Z,8.03
2022-10-09T06:52:05.932Z,8.06
2022-10-09T06:54:35.572Z,8.11
2022-10-09T06:57:18.032Z,8.15
2022-10-09T06:59:50.696Z,8.21
2022-10-09T07:02:20.337Z,8.27
2022-10-09T07:04:49.527Z,8.33
2022-10-09T07:07:18.527Z,8.41
2022-10-09T07:09:47.232Z,8.47
2022-10-09T07:12:16.829Z,8.53
2022-10-09T07:14:59.396Z,8.61
2022-10-09T07:17:28.653Z,8.64
2022-10-09T07:19:57.847Z,8.67
2022-10-09T07:22:40.128Z,8.72
2022-10-09T07:25:12.226Z,8.76
2022-10-09T07:27:41.166Z,8.79
2022-10-09T07:30:11.314Z,8.83
2022-10-09T07:32:40.349Z,8.86
2022-10-09T07:35:09.097Z,8.87
2022-10-09T07:37:52.133Z,8.90
2022-10-09T07:40:22.091Z,8.93
2022-10-09T07:42:51.279Z,8.98
2022-10-09T07:45:20.089Z,9.02
2022-10-09T07:47:49.119Z,9.09
2022-10-09T07:50:17.838Z,9.13
2022-10-09T07:52:47.688Z,9.15
2022-10-09T07:55:17.280Z,9.21
2022-10-09T07:57:46.872Z,9.27
2022-10-09T08:00:16.734Z,9.26
2022-10-09T08:02:47.074Z,9.29
2022-10-09T08:05:29.667Z,9.33
2022-10-09T08:07:58.152Z,9.35
2022-10-09T08:10:31.549Z,9.40
2022-10-09T08:13:01.073Z,9.49
2022-10-09T08:15:30.060Z,9.52
2022-10-09T08:17:58.830Z,9.54
2022-10-09T08:20:28.956Z,9.57
2022-10-09T08:22:59.649Z,9.61
2022-10-09T08:25:31.933Z,9.64
2022-10-09T08:28:04.502Z,9.63
2022-10-09T08:30:47.425Z,9.67
2022-10-09T08:33:23.608Z,9.74
2022-10-09T08:35:53.860Z,9.85
2022-10-09T08:38:46.839Z,9.91
2022-10-09T08:41:47.493Z,9.93
2022-10-09T08:44:37.773Z,9.91
2022-10-09T08:47:41.549Z,9.99
2022-10-09T08:50:16.746Z,10.03
2022-10-09T08:57:18.781Z,10.07
2022-10-09T08:59:53.667Z,10.22
2022-10-09T09:03:04.636Z,10.36
2022-10-09T09:05:39.252Z,10.46
2022-10-09T09:08:48.292Z,10.48
2022-10-09T09:11:48.168Z,10.50
2022-10-09T09:14:42.511Z,10.55
2022-10-09T09:17:57.873Z,10.63
2022-10-09T09:20:34.929Z,10.72
2022-10-09T09:23:05.794Z,10.82
2022-10-09T09:25:40.339Z,10.96
2022-10-09T09:28:31.884Z,11.07
2022-10-09T09:31:17.684Z,11.15
2022-10-09T09:34:02.628Z,11.14
2022-10-09T09:36:56.255Z,11.20
2022-10-09T09:42:21.954Z,11.26
2022-10-09T09:45:11.439Z,11.22
2022-10-09T09:47:45.783Z,11.20
2022-10-09T09:50:35.006Z,11.19
2022-10-09T09:53:38.038Z,11.28
2022-10-09T09:56:07.854Z,11.37
2022-10-09T09:58:53.411Z,11.41
2022-10-09T10:01:30.840Z,11.48
2022-10-09T10:04:02.831Z,11.54
2022-10-09T10:06:32.867Z,11.61
2022-10-09T10:09:14.047Z,11.55
2022-10-09T10:12:04.277Z,11.59
2022-10-09T10:14:34.690Z,11.68
2022-10-09T10:17:03.582Z,11.70
2022-10-09T10:19:35.750Z,11.74
2022-10-09T10:22:07.502Z,11.73
2022-10-09T10:24:44.854Z,11.75
2022-10-09T10:27:22.938Z,11.84
2022-10-09T10:29:58.593Z,11.93
2022-10-09T10:32:37.848Z,11.98
2022-10-09T10:35:30.616Z,12.04
2022-10-09T10:38:06.746Z,11.97
2022-10-09T10:40:42.587Z,11.88
2022-10-09T10:43:11.242Z,11.93
2022-10-09T10:46:17.814Z,12.04
2022-10-09T10:48:49.912Z,12.01
2022-10-09T10:51:51.624Z,11.88
2022-10-09T10:54:39.399Z,11.73
2022-10-09T10:57:53.450Z,11.66
2022-10-09T11:00:23.428Z,11.60
2022-10-09T11:03:20.912Z,11.56
2022-10-09T11:05:59.680Z,11.52
2022-10-09T11:08:31.429Z,11.50
2022-10-09T11:11:23.221Z,11.46
2022-10-09T11:14:29.708Z,11.46
2022-10-09T11:17:19.052Z,11.46
2022-10-09T11:20:12.832Z,11.43
2022-10-09T11:23:33.144Z,11.40
2022-10-09T11:26:04.945Z,11.59
2022-10-09T11:28:43.760Z,11.82
2022-10-09T11:31:36.101Z,12.02
2022-10-09T11:34:12.827Z,12.13
2022-10-09T11:36:43.713Z,12.03
2022-10-09T11:39:19.929Z,11.92
2022-10-09T11:42:03.236Z,11.81
2022-10-09T11:44:32.086Z,11.84
2022-10-09T11:47:42.301Z,12.02
2022-10-09T11:50:43.101Z,12.21
2022-10-09T11:53:28.941Z,12.31
2022-10-09T11:56:24.107Z,12.36
2022-10-09T11:59:07.964Z,12.54
2022-10-09T12:01:45.097Z,12.76
2022-10-09T12:04:13.711Z,13.07
2022-10-09T12:07:00.033Z,13.27
2022-10-09T12:09:47.670Z,13.42
2022-10-09T12:12:30.846Z,13.41
2022-10-09T12:15:13.047Z,13.33
2022-10-09T12:17:55.482Z,13.23
2022-10-09T12:20:26.640Z,13.17
2022-10-09T12:23:25.742Z,13.01
2022-10-09T12:26:06.091Z,12.98
2022-10-09T12:28:49.194Z,13.01
2022-10-09T12:31:24.338Z,13.17
2022-10-09T12:34:14.767Z,13.27
2022-10-09T12:37:19.079Z,13.34
2022-10-09T12:39:49.905Z,13.43
2022-10-09T12:42:25.273Z,13.52
2022-10-09T12:44:56.158Z,13.69
2022-10-09T12:47:38.501Z,13.81
2022-10-09T12:50:27.515Z,13.78
2022-10-09T12:53:00.297Z,13.79
2022-10-09T12:55:35.425Z,13.86
2022-10-09T12:58:15.300Z,13.95
2022-10-09T13:00:50.471Z,13.98
2022-10-09T13:03:37.287Z,14.12
2022-10-09T13:06:35.054Z,14.20
2022-10-09T13:09:18.108Z,14.19
2022-10-09T13:12:07.869Z,14.01
2022-10-09T13:14:43.363Z,13.94
2022-10-09T13:20:00.791Z,13.81
2022-10-09T13:22:35.220Z,13.66
2022-10-09T13:25:18.958Z,13.64
2022-10-09T13:27:48.157Z,13.76
2022-10-09T13:30:31.682Z,13.95
2022-10-09T13:33:00.731Z,14.03
2022-10-09T13:35:30.242Z,14.07
2022-10-09T13:38:18.089Z,14.20
2022-10-09T13:41:00.775Z,14.42
2022-10-09T13:43:31.273Z,14.65
2022-10-09T13:46:00.563Z,14.85
2022-10-09T13:48:31.441Z,14.90
2022-10-09T13:51:00.875Z,14.91
2022-10-09T13:53:29.827Z,14.97
2022-10-09T13:56:01.071Z,15.01
2022-10-09T13:58:31.454Z,15.02
2022-10-09T14:01:13.932Z,14.80
2022-10-09T14:03:56.514Z,14.69
2022-10-09T14:06:26.075Z,14.55
2022-10-09T14:09:09.114Z,14.60
2022-10-09T14:11:51.587Z,14.71
2022-10-09T14:14:22.661Z,14.74
2022-10-09T14:16:52.175Z,14.82
2022-10-09T14:19:20.970Z,14.93
2022-10-09T14:21:50.244Z,14.80
2022-10-09T14:24:19.997Z,14.74
2022-10-09T14:26:51.683Z,14.80
2022-10-09T14:29:20.896Z,14.77
2022-10-09T14:31:51.549Z,14.80
2022-10-09T14:34:20.623Z,14.82
2022-10-09T14:36:49.847Z,14.92
2022-10-09T14:39:32.211Z,15.02
2022-10-09T14:42:00.967Z,15.12
2022-10-09T14:44:29.871Z,15.20
2022-10-09T14:46:59.473Z,15.11
2022-10-09T14:49:28.409Z,14.95
2022-10-09T14:51:57.226Z,14.76
2022-10-09T14:54:26.883Z,14.55
2022-10-09T14:56:56.712Z,14.45
2022-10-09T14:59:25.643Z,14.38
2022-10-09T15:01:54.617Z,14.24
2022-10-09T15:04:36.979Z,14.12
2022-10-09T15:07:19.279Z,13.91
2022-10-09T15:10:01.671Z,13.78
2022-10-09T15:12:30.230Z,13.64
2022-10-09T15:15:12.633Z,13.52
2022-10-09T15:17:55.031Z,13.43
2022-10-09T15:20:37.487Z,13.39
2022-10-09T15:23:06.634Z,13.39
2022-10-09T15:25:35.647Z,13.43
2022-10-09T15:28:19.406Z,13.46
2022-10-09T15:31:03.551Z,13.42
2022-10-09T15:33:33.911Z,13.39
2022-10-09T15:36:16.352Z,13.40
2022-10-09T15:39:01.344Z,13.40
2022-10-09T15:41:44.304Z,13.38
2022-10-09T15:44:19.540Z,13.36
2022-10-09T15:47:02.147Z,13.31
2022-10-09T15:49:31.222Z,13.21
2022-10-09T15:52:00.474Z,13.09
2022-10-09T15:54:43.151Z,12.93
2022-10-09T15:57:25.493Z,12.85
2022-10-09T16:00:10.072Z,12.74
2022-10-09T16:02:53.058Z,12.62
2022-10-09T16:05:21.971Z,12.52
2022-10-09T16:08:05.384Z,12.38
2022-10-09T16:10:52.702Z,12.27
2022-10-09T16:13:23.576Z,12.17
2022-10-09T16:15:53.433Z,12.06
2022-10-09T16:18:23.956Z,11.97
2022-10-09T16:20:52.862Z,11.89
2022-10-09T16:23:21.800Z,11.81
2022-10-09T16:25:59.418Z,11.74
2022-10-09T16:28:28.453Z,11.67
2022-10-09T16:31:38.476Z,11.60
2022-10-09T16:34:21.012Z,11.51
2022-10-09T16:37:03.418Z,11.41
2022-10-09T16:39:33.049Z,11.28
2022-10-09T16:42:16.689Z,11.14
2022-10-09T16:44:45.882Z,11.01
2022-10-09T16:47:15.101Z,10.88
2022-10-09T16:49:44.530Z,10.74
2022-10-09T16:52:13.394Z,10.62
2022-10-09T16:54:42.417Z,10.51
2022-10-09T16:57:11.276Z,10.41
2022-10-09T16:59:53.658Z,10.33
2022-10-09T17:02:36.000Z,10.22
2022-10-09T17:05:06.730Z,10.12
2022-10-09T17:07:49.579Z,10.06
2022-10-09T17:10:19.048Z,10.00
2022-10-09T17:12:48.497Z,9.94
2022-10-09T17:15:17.447Z,9.86
2022-10-09T17:17:59.843Z,9.77
2022-10-09T17:20:28.803Z,9.70
2022-10-09T17:22:57.737Z,9.63
2022-10-09T17:25:42.273Z,9.56
2022-10-09T17:28:11.200Z,9.50
2022-10-09T17:30:41.230Z,9.46
2022-10-09T17:33:10.373Z,9.39
2022-10-09T17:35:40.961Z,9.31
2022-10-09T17:38:09.829Z,9.22
2022-10-09T17:40:40.680Z,9.16
2022-10-09T17:43:23.134Z,9.13
2022-10-09T17:45:52.356Z,9.08
2022-10-09T17:48:20.951Z,9.01
2022-10-09T17:50:54.801Z,8.95
2022-10-09T17:53:37.196Z,8.91
2022-10-09T17:56:06.138Z,8.88
2022-10-09T17:58:35.450Z,8.89
2022-10-09T18:01:06.818Z,8.87
2022-10-09T18:03:36.068Z,8.85
2022-10-09T18:06:07.048Z,8.82
2022-10-09T18:08:37.113Z,8.78
2022-10-09T18:11:09.570Z,8.76
2022-10-09T18:13:39.747Z,8.73
2022-10-09T18:16:11.387Z,8.67
2022-10-09T18:18:40.573Z,8.62
2022-10-09T18:21:12.441Z,8.58
2022-10-09T18:23:41.156Z,8.55
2022-10-09T18:26:24.130Z,8.52
2022-10-09T18:28:54.216Z,8.46
2022-10-09T18:31:25.509Z,8.40
2022-10-09T18:33:54.798Z,8.36
2022-10-09T18:36:37.829Z,8.34
2022-10-09T18:39:14.563Z,8.33
2022-10-09T18:41:43.869Z,8.30
2022-10-09T18:44:17.928Z,8.27
2022-10-09T18:46:57.414Z,8.21
2022-10-09T18:49:30.614Z,8.15
2022-10-09T18:52:02.428Z,8.10
2022-10-09T18:54:49.057Z,8.04
2022-10-09T18:57:18.734Z,8.00
2022-10-09T19:00:02.432Z,7.95
2022-10-09T19:02:31.370Z,7.92
2022-10-09T19:05:00.441Z,7.85
2022-10-09T19:07:29.773Z,7.81
2022-10-09T19:09:59.061Z,7.79
2022-10-09T19:12:28.068Z,7.77
2022-10-09T19:14:58.880Z,7.73
2022-10-09T19:17:29.637Z,7.68
2022-10-09T19:19:58.706Z,7.64
2022-10-09T19:22:41.210Z,7.60
2022-10-09T19:25:10.057Z,7.56
2022-10-09T19:27:52.746Z,7.51
2022-10-09T19:30:21.787Z,7.47
2022-10-09T19:32:52.028Z,7.43
2022-10-09T19:35:35.196Z,7.43
2022-10-09T19:38:18.135Z,7.40
2022-10-09T19:40:48.559Z,7.35
2022-10-09T19:43:19.849Z,7.30
2022-10-09T19:45:50.123Z,7.25
2022-10-09T19:48:20.551Z,7.19
2022-10-09T19:51:12.354Z,7.15
2022-10-09T19:53:55.117Z,7.14
2022-10-09T19:56:38.605Z,7.11
2022-10-09T19:59:09.634Z,7.12
2022-10-09T20:01:40.629Z,7.12
2022-10-09T20:04:11.389Z,7.10
2022-10-09T20:06:43.039Z,7.07
2022-10-09T20:09:25.525Z,7.05
2022-10-09T20:11:54.155Z,7.03
2022-10-09T20:14:23.174Z,7.00
2022-10-09T20:17:05.461Z,6.96
2022-10-09T20:19:34.660Z,6.94
2022-10-09T20:22:16.938Z,6.91
2022-10-09T20:24:45.835Z,6.89
2022-10-09T20:27:14.477Z,6.86
2022-10-09T20:29:43.625Z,6.83
2022-10-09T20:32:25.960Z,6.79
2022-10-09T20:34:55.242Z,6.71
2022-10-09T20:37:24.212Z,6.66
2022-10-09T20:40:07.125Z,6.63
2022-10-09T20:42:36.010Z,6.60
2022-10-09T20:45:04.895Z,6.59
2022-10-09T20:47:47.920Z,6.58
2022-10-09T20:50:30.870Z,6.56
2022-10-09T20:52:59.695Z,6.55
2022-10-09T20:55:29.421Z,6.52
2022-10-09T20:57:58.586Z,6.51
2022-10-09T21:00:28.373Z,6.49
2022-10-09T21:02:57.387Z,6.45
2022-10-09T21:05:26.629Z,6.40
2022-10-09T21:07:55.274Z,6.38
2022-10-09T21:10:46.278Z,6.34
2022-10-09T21:13:28.713Z,6.30
2022-10-09T21:15:57.902Z,6.26
2022-10-09T21:18:27.116Z,6.23
2022-10-09T21:20:56.116Z,6.20
2022-10-09T21:23:24.947Z,6.17
2022-10-09T21:25:54.203Z,6.15
2022-10-09T21:28:23.662Z,6.14
2022-10-09T21:30:52.710Z,6.11
2022-10-09T21:33:34.956Z,6.08
2022-10-09T21:36:10.719Z,6.05
2022-10-09T21:38:53.563Z,6.02
2022-10-09T21:41:23.244Z,5.96
2022-10-09T21:44:07.388Z,5.92
2022-10-09T21:46:38.423Z,5.88
2022-10-09T21:49:23.850Z,5.86
2022-10-09T21:51:53.066Z,5.84
2022-10-09T21:54:23.473Z,5.83
2022-10-09T21:57:06.266Z,5.82
2022-10-09T21:59:34.914Z,5.75
2022-10-09T22:02:04.600Z,5.66
2022-10-09T22:04:33.692Z,5.61
2022-10-09T22:07:16.079Z,5.55
2022-10-09T22:09:45.222Z,5.50
2022-10-09T22:12:14.267Z,5.45
2022-10-09T22:14:43.265Z,5.39
2022-10-09T22:17:12.767Z,5.38
2022-10-09T22:19:41.688Z,5.38
2022-10-09T22:22:10.789Z,5.39
2022-10-09T22:24:39.784Z,5.39
2022-10-09T22:27:22.674Z,5.37
2022-10-09T22:30:05.714Z,5.33
2022-10-09T22:32:34.724Z,5.28
2022-10-09T22:35:17.211Z,5.24
2022-10-09T22:37:46.368Z,5.19
2022-10-09T22:40:15.529Z,5.14
2022-10-09T22:42:58.113Z,5.11
2022-10-09T22:45:27.411Z,5.06
2022-10-09T22:47:56.646Z,5.04
2022-10-09T22:50:25.702Z,5.02
2022-10-09T22:52:54.844Z,4.98
2022-10-09T22:55:41.156Z,4.93
2022-10-09T22:58:23.631Z,4.91
2022-10-09T23:00:53.163Z,4.88
2022-10-09T23:03:35.689Z,4.85
2022-10-09T23:06:20.503Z,4.84
2022-10-09T23:08:49.845Z,4.85
2022-10-09T23:11:21.183Z,4.89
2022-10-09T23:14:05.672Z,4.92
2022-10-09T23:16:48.295Z,4.89
2022-10-09T23:19:17.725Z,4.88
2022-10-09T23:21:47.427Z,4.88
2022-10-09T23:24:29.808Z,4.83
2022-10-09T23:27:12.393Z,4.73
2022-10-09T23:29:41.260Z,4.68
2022-10-09T23:32:23.641Z,4.62
2022-10-09T23:34:52.725Z,4.56
2022-10-09T23:37:21.448Z,4.48
2022-10-09T23:40:04.680Z,4.42
2022-10-09T23:42:33.588Z,4.37
2022-10-09T23:45:02.638Z,4.33
2022-10-09T23:47:31.288Z,4.29
2022-10-09T23:50:00.769Z,4.26
2022-10-09T23:52:29.703Z,4.23
2022-10-09T23:54:58.472Z,4.22
2022-10-09T23:57:41.466Z,4.20
